Time;durP1;ratioP1;P1;durP2;ratioP2;P2;SDS_P1;SDS_P2;PMS_P1;PMS_P2;Temp;Humidity;BMP_temperature;BMP_pressure;BME280_temperature;BME280_humidity;BME280_pressure;Samples;Min_cycle;Max_cycle;Signal;HPM_P1;HPM_P2
2022/07/21 00:00:06;;;;;;;6.82;3.20;;;;;;;;;;5086186;28;20095;-75
2022/07/21 00:02:32;;;;;;;4.70;2.70;;;;;;;;;;5092606;28;20028;-75
2022/07/21 00:04:58;;;;;;;4.90;2.75;;;;;;;;;;5092675;28;20030;-74
2022/07/21 00:07:24;;;;;;;4.35;2.65;;;;;;;;;;5093208;28;20138;-75
2022/07/21 00:09:50;;;;;;;6.18;2.80;;;;;;;;;;5093329;28;20381;-76
2022/07/21 00:12:16;;;;;;;7.80;3.63;;;;;;;;;;5091115;28;20024;-73
2022/07/21 00:14:42;;;;;;;9.48;3.10;;;;;;;;;;5091982;28;20036;-75
2022/07/21 00:17:08;;;;;;;15.20;3.58;;;;;;;;;;5089940;28;20060;-72
2022/07/21 00:19:34;;;;;;;10.48;3.33;;;;;;;;;;5075173;28;20039;-72
2022/07/21 00:22:00;;;;;;;6.30;2.88;;;;;;;;;;5083495;28;20028;-73
2022/07/21 00:24:26;;;;;;;7.85;2.85;;;;;;;;;;5092719;28;20135;-72
2022/07/21 00:26:52;;;;;;;4.85;2.53;;;;;;;;;;5092280;28;20024;-73
2022/07/21 00:29:18;;;;;;;3.97;2.92;;;;;;;;;;5085416;28;20444;-73
2022/07/21 00:31:44;;;;;;;5.63;2.80;;;;;;;;;;5092563;28;20052;-72
2022/07/21 00:34:11;;;;;;;5.50;2.60;;;;;;;;;;5092719;28;20072;-73
2022/07/21 00:36:37;;;;;;;4.72;2.70;;;;;;;;;;5092422;28;20389;-73
2022/07/21 00:39:03;;;;;;;5.68;2.88;;;;;;;;;;5091284;28;20095;-73
2022/07/21 00:41:29;;;;;;;7.43;3.00;;;;;;;;;;5077032;28;20032;-73
2022/07/21 00:43:55;;;;;;;5.00;2.60;;;;;;;;;;5091993;28;20032;-76
2022/07/21 00:46:21;;;;;;;6.63;2.75;;;;;;;;;;5092455;28;20027;-73
2022/07/21 00:48:47;;;;;;;3.45;2.75;;;;;;;;;;5090942;28;20039;-75
2022/07/21 00:51:13;;;;;;;6.80;2.90;;;;;;;;;;5091563;28;20035;-74
2022/07/21 00:53:40;;;;;;;4.85;2.70;;;;;;;;;;5092119;28;20084;-75
2022/07/21 00:56:06;;;;;;;4.80;2.85;;;;;;;;;;5092681;28;20481;-73
2022/07/21 00:58:32;;;;;;;6.10;2.80;;;;;;;;;;5087052;28;20045;-72
2022/07/21 01:00:58;;;;;;;7.72;3.03;;;;;;;;;;5090860;28;20473;-70
2022/07/21 01:03:24;;;;;;;5.88;2.78;;;;;;;;;;5092610;28;20130;-71
2022/07/21 01:05:51;;;;;;;7.53;3.00;;;;;;;;;;5091735;28;20020;-75
2022/07/21 01:08:17;;;;;;;4.78;2.85;;;;;;;;;;5092141;28;20103;-72
2022/07/21 01:10:43;;;;;;;9.45;3.08;;;;;;;;;;5094009;28;20095;-73
2022/07/21 01:13:09;;;;;;;7.60;2.90;;;;;;;;;;5096166;28;20036;-73
2022/07/21 01:15:36;;;;;;;4.70;2.53;;;;;;;;;;5095600;28;20024;-74
2022/07/21 01:18:02;;;;;;;6.13;2.88;;;;;;;;;;5096293;28;20028;-75
2022/07/21 01:20:32;;;;;;;6.32;2.67;;;;;;;;;;5094817;28;20699;-75
2022/07/21 01:22:58;;;;;;;5.30;2.70;;;;;;;;;;5094996;28;20024;-71
2022/07/21 01:25:24;;;;;;;5.43;2.85;;;;;;;;;;5094419;28;20489;-73
2022/07/21 01:27:50;;;;;;;5.75;3.08;;;;;;;;;;5096272;28;20371;-74
2022/07/21 01:30:16;;;;;;;8.98;3.17;;;;;;;;;;5095283;28;20028;-74
2022/07/21 01:32:43;;;;;;;5.18;3.13;;;;;;;;;;5090352;28;20028;-73
2022/07/21 01:35:11;;;;;;;5.90;2.97;;;;;;;;;;5096252;28;20017;-72
2022/07/21 01:37:38;;;;;;;4.88;2.80;;;;;;;;;;5095435;28;20036;-72
2022/07/21 01:42:50;;;;;;;3.05;2.60;;;;;;;;;;5094522;28;20042;-73
2022/07/21 01:45:16;;;;;;;5.65;2.53;;;;;;;;;;5095696;28;20514;-73
2022/07/21 01:47:42;;;;;;;4.28;2.60;;;;;;;;;;5095529;28;20461;-71
2022/07/21 01:50:08;;;;;;;4.07;2.50;;;;;;;;;;5095641;28;20021;-72
2022/07/21 01:52:34;;;;;;;5.03;2.90;;;;;;;;;;5093681;28;20070;-72
2022/07/21 01:55:00;;;;;;;11.15;2.90;;;;;;;;;;5093990;28;20036;-72
2022/07/21 01:57:26;;;;;;;4.93;2.80;;;;;;;;;;5094094;28;20104;-72
2022/07/21 01:59:52;;;;;;;7.47;2.80;;;;;;;;;;5095403;28;20028;-74
2022/07/21 02:02:20;;;;;;;3.13;2.53;;;;;;;;;;5094668;28;20413;-73
2022/07/21 02:04:47;;;;;;;9.25;2.83;;;;;;;;;;5085583;28;20017;-73
2022/07/21 02:07:13;;;;;;;3.75;2.65;;;;;;;;;;5093270;28;20013;-72
2022/07/21 02:09:40;;;;;;;4.80;2.78;;;;;;;;;;5095156;28;20023;-73
2022/07/21 02:12:06;;;;;;;4.88;2.80;;;;;;;;;;5094700;28;20035;-73
2022/07/21 02:14:32;;;;;;;5.75;2.70;;;;;;;;;;5092874;28;20097;-74
2022/07/21 02:16:58;;;;;;;6.43;3.60;;;;;;;;;;5090785;28;20043;-73
2022/07/21 02:19:24;;;;;;;8.18;3.40;;;;;;;;;;5081286;28;20397;-73
2022/07/21 02:21:50;;;;;;;9.48;3.72;;;;;;;;;;5094457;28;20058;-73
2022/07/21 02:24:16;;;;;;;11.30;3.67;;;;;;;;;;5094975;28;20059;-72
2022/07/21 02:26:42;;;;;;;5.55;3.63;;;;;;;;;;5091572;28;20032;-71
2022/07/21 02:29:08;;;;;;;5.35;3.17;;;;;;;;;;5089192;28;20070;-69
2022/07/21 02:31:35;;;;;;;6.22;4.05;;;;;;;;;;5094713;28;20057;-75
2022/07/21 02:34:01;;;;;;;12.68;4.88;;;;;;;;;;5094096;28;20024;-72
2022/07/21 02:36:27;;;;;;;7.25;3.30;;;;;;;;;;5088728;28;20031;-74
2022/07/21 02:38:53;;;;;;;5.05;3.35;;;;;;;;;;5087443;28;20080;-73
2022/07/21 02:41:19;;;;;;;5.22;3.10;;;;;;;;;;5094428;28;20363;-73
2022/07/21 02:43:45;;;;;;;6.32;3.05;;;;;;;;;;5094534;28;20028;-73
2022/07/21 02:46:11;;;;;;;6.40;3.20;;;;;;;;;;5093542;28;20024;-72
2022/07/21 02:48:37;;;;;;;6.55;3.10;;;;;;;;;;5092010;28;20020;-72
2022/07/21 02:51:03;;;;;;;5.93;3.30;;;;;;;;;;5092977;28;20539;-72
2022/07/21 02:53:29;;;;;;;5.93;3.10;;;;;;;;;;5094407;28;20036;-74
2022/07/21 02:55:56;;;;;;;5.47;2.90;;;;;;;;;;5093197;28;20055;-73
2022/07/21 02:58:23;;;;;;;5.85;3.00;;;;;;;;;;5093060;28;20044;-73
2022/07/21 03:00:49;;;;;;;5.05;3.30;;;;;;;;;;5094146;28;20017;-72
2022/07/21 03:03:15;;;;;;;8.75;2.85;;;;;;;;;;5094238;28;20057;-72
2022/07/21 03:05:41;;;;;;;5.18;3.05;;;;;;;;;;5093858;28;20023;-73
2022/07/21 03:08:08;;;;;;;5.68;3.67;;;;;;;;;;5091812;28;20028;-72
2022/07/21 03:10:34;;;;;;;4.38;3.22;;;;;;;;;;5091642;28;20441;-74
2022/07/21 03:13:00;;;;;;;7.03;3.13;;;;;;;;;;5093926;28;20079;-75
2022/07/21 03:15:27;;;;;;;4.85;3.00;;;;;;;;;;5089640;28;20024;-74
2022/07/21 03:17:53;;;;;;;5.53;2.75;;;;;;;;;;5089571;28;20028;-75
2022/07/21 03:20:19;;;;;;;5.03;2.80;;;;;;;;;;5092713;28;20493;-75
2022/07/21 03:22:45;;;;;;;8.02;3.13;;;;;;;;;;5093342;28;20096;-73
2022/07/21 03:25:12;;;;;;;9.07;3.03;;;;;;;;;;5085856;28;20028;-74
2022/07/21 03:27:38;;;;;;;4.20;3.00;;;;;;;;;;5093309;28;20035;-73
2022/07/21 03:30:05;;;;;;;6.70;2.95;;;;;;;;;;5092825;28;20099;-73
2022/07/21 03:32:31;;;;;;;4.78;2.90;;;;;;;;;;5092841;28;20107;-72
2022/07/21 03:34:57;;;;;;;5.28;3.50;;;;;;;;;;5092092;28;20488;-71
2022/07/21 03:37:23;;;;;;;6.05;3.08;;;;;;;;;;5092893;28;20066;-73
2022/07/21 03:39:50;;;;;;;7.10;3.03;;;;;;;;;;5092518;28;20034;-73
2022/07/21 03:42:16;;;;;;;5.40;3.05;;;;;;;;;;5086456;28;20032;-72
2022/07/21 03:44:42;;;;;;;5.13;3.00;;;;;;;;;;5094080;28;20103;-74
2022/07/21 03:47:08;;;;;;;5.93;3.17;;;;;;;;;;5087589;28;20052;-73
2022/07/21 03:49:34;;;;;;;10.52;4.20;;;;;;;;;;5089417;28;20465;-73
2022/07/21 03:52:00;;;;;;;7.75;3.80;;;;;;;;;;5092367;28;20397;-73
2022/07/21 03:54:26;;;;;;;8.20;3.50;;;;;;;;;;5088053;28;20401;-74
2022/07/21 03:56:52;;;;;;;7.10;3.45;;;;;;;;;;5091248;28;20462;-73
2022/07/21 03:59:18;;;;;;;6.05;3.35;;;;;;;;;;5090263;28;20454;-72
2022/07/21 04:01:44;;;;;;;8.27;3.70;;;;;;;;;;5078323;28;20060;-73
2022/07/21 04:04:10;;;;;;;7.30;3.40;;;;;;;;;;5093045;28;20458;-73
2022/07/21 04:06:36;;;;;;;5.40;3.45;;;;;;;;;;5093285;28;20020;-72
2022/07/21 04:09:03;;;;;;;7.03;3.60;;;;;;;;;;5092544;28;20020;-73
2022/07/21 04:11:31;;;;;;;4.95;3.58;;;;;;;;;;5090837;28;20032;-74
2022/07/21 04:13:57;;;;;;;8.95;3.28;;;;;;;;;;5092609;28;20038;-74
2022/07/21 04:16:23;;;;;;;7.28;3.50;;;;;;;;;;5092976;28;20389;-73
2022/07/21 04:18:49;;;;;;;7.50;3.60;;;;;;;;;;5092166;28;20032;-71
2022/07/21 04:21:15;;;;;;;7.28;3.03;;;;;;;;;;5091826;28;20056;-72
2022/07/21 04:23:41;;;;;;;7.97;3.25;;;;;;;;;;5088456;28;20034;-73
2022/07/21 04:26:07;;;;;;;8.55;3.30;;;;;;;;;;5092797;28;20023;-73
2022/07/21 04:28:33;;;;;;;6.47;3.15;;;;;;;;;;5086778;28;20043;-72
2022/07/21 04:31:00;;;;;;;7.15;3.60;;;;;;;;;;5091997;28;20020;-74
2022/07/21 04:33:26;;;;;;;10.07;3.17;;;;;;;;;;5083534;28;20024;-74
2022/07/21 04:35:52;;;;;;;12.35;3.92;;;;;;;;;;5086028;28;20052;-73
2022/07/21 04:38:18;;;;;;;8.88;3.47;;;;;;;;;;5082563;28;20040;-74
2022/07/21 04:40:44;;;;;;;14.00;3.80;;;;;;;;;;5089967;28;20035;-74
2022/07/21 04:43:11;;;;;;;7.45;3.40;;;;;;;;;;5088500;28;20452;-73
2022/07/21 04:45:37;;;;;;;10.88;3.65;;;;;;;;;;5092267;28;20016;-74
2022/07/21 04:48:03;;;;;;;15.73;3.75;;;;;;;;;;5091104;28;20031;-72
2022/07/21 04:50:29;;;;;;;6.95;3.38;;;;;;;;;;5091949;28;20385;-72
2022/07/21 04:52:55;;;;;;;9.65;3.50;;;;;;;;;;5092497;28;20024;-72
2022/07/21 04:55:22;;;;;;;14.60;4.10;;;;;;;;;;5092410;28;20423;-72
2022/07/21 04:57:49;;;;;;;9.88;3.40;;;;;;;;;;5086915;28;20058;-76
2022/07/21 05:00:18;;;;;;;6.45;3.30;;;;;;;;;;5078970;28;20024;-74
2022/07/21 05:02:45;;;;;;;8.20;3.30;;;;;;;;;;5090797;28;20424;-73
2022/07/21 05:05:11;;;;;;;10.15;3.45;;;;;;;;;;5091216;28;20013;-72
2022/07/21 05:07:37;;;;;;;8.68;3.63;;;;;;;;;;5090982;28;20032;-74
2022/07/21 05:10:07;;;;;;;7.45;3.97;;;;;;;;;;5086118;28;20378;-71
2022/07/21 05:12:33;;;;;;;13.32;4.18;;;;;;;;;;5091349;28;20382;-69
2022/07/21 05:14:59;;;;;;;6.00;3.40;;;;;;;;;;5092002;28;20111;-72
2022/07/21 05:17:25;;;;;;;7.70;3.53;;;;;;;;;;5092314;28;20028;-71
2022/07/21 05:19:51;;;;;;;9.02;4.28;;;;;;;;;;5096324;28;20047;-68
2022/07/21 05:22:17;;;;;;;9.02;4.75;;;;;;;;;;5087299;28;20102;-67
2022/07/21 05:24:44;;;;;;;9.15;4.03;;;;;;;;;;5079468;28;20032;-70
2022/07/21 05:27:10;;;;;;;11.85;4.05;;;;;;;;;;5084057;28;20029;-71
2022/07/21 05:29:36;;;;;;;9.55;4.13;;;;;;;;;;5087369;28;20028;-69
2022/07/21 05:32:02;;;;;;;8.60;3.80;;;;;;;;;;5087229;28;20055;-72
2022/07/21 05:34:28;;;;;;;8.20;3.65;;;;;;;;;;5091694;28;20080;-74
2022/07/21 05:36:55;;;;;;;11.00;4.60;;;;;;;;;;5087082;28;20020;-75
2022/07/21 05:39:21;;;;;;;8.77;4.13;;;;;;;;;;5079304;28;20027;-70
2022/07/21 05:41:47;;;;;;;15.25;4.85;;;;;;;;;;5092192;28;20020;-72
2022/07/21 05:44:13;;;;;;;15.77;4.40;;;;;;;;;;5091175;28;20016;-70
2022/07/21 05:46:40;;;;;;;20.05;4.93;;;;;;;;;;5091749;28;20578;-70
2022/07/21 05:49:06;;;;;;;28.95;5.57;;;;;;;;;;5092084;28;20032;-70
2022/07/21 05:51:32;;;;;;;15.65;4.30;;;;;;;;;;5092042;28;20487;-71
2022/07/21 05:53:58;;;;;;;9.07;3.67;;;;;;;;;;5092268;28;20043;-68
2022/07/21 05:56:24;;;;;;;7.43;4.10;;;;;;;;;;5091856;28;20099;-70
2022/07/21 05:58:50;;;;;;;6.72;3.70;;;;;;;;;;5089074;28;20101;-70
2022/07/21 06:01:17;;;;;;;10.57;3.90;;;;;;;;;;5095411;28;20031;-71
2022/07/21 06:03:47;;;;;;;13.68;3.85;;;;;;;;;;5093425;28;20016;-70
2022/07/21 06:06:13;;;;;;;10.05;3.80;;;;;;;;;;5091103;28;20103;-71
2022/07/21 06:08:40;;;;;;;9.50;3.78;;;;;;;;;;5083425;28;20115;-68
2022/07/21 06:11:11;;;;;;;12.35;3.67;;;;;;;;;;5091129;28;20016;-72
2022/07/21 06:13:37;;;;;;;10.52;3.55;;;;;;;;;;5094349;28;20040;-71
2022/07/21 06:16:04;;;;;;;9.35;3.50;;;;;;;;;;5092262;28;20024;-71
2022/07/21 06:18:30;;;;;;;8.45;3.70;;;;;;;;;;5091364;28;20028;-69
2022/07/21 06:20:56;;;;;;;27.80;5.32;;;;;;;;;;5094634;28;20089;-72
2022/07/21 06:23:22;;;;;;;14.90;3.80;;;;;;;;;;5089160;28;20079;-71
2022/07/21 06:25:48;;;;;;;20.50;5.30;;;;;;;;;;5093212;28;20047;-70
2022/07/21 06:28:15;;;;;;;11.35;3.90;;;;;;;;;;5092620;28;20111;-71
2022/07/21 06:30:41;;;;;;;10.40;4.22;;;;;;;;;;5091253;28;20016;-72
2022/07/21 06:33:07;;;;;;;19.75;4.97;;;;;;;;;;5089726;28;20103;-70
2022/07/21 06:35:33;;;;;;;9.27;4.15;;;;;;;;;;5092182;28;20027;-71
2022/07/21 06:37:59;;;;;;;15.50;4.38;;;;;;;;;;5094235;28;20039;-69
2022/07/21 06:40:26;;;;;;;10.23;3.92;;;;;;;;;;5093657;28;20421;-71
2022/07/21 06:42:52;;;;;;;12.18;4.22;;;;;;;;;;5094825;28;20027;-71
2022/07/21 06:45:18;;;;;;;16.92;4.47;;;;;;;;;;5092514;28;20032;-72
2022/07/21 06:47:44;;;;;;;13.23;4.50;;;;;;;;;;5083891;28;20032;-70
2022/07/21 06:50:11;;;;;;;10.38;4.50;;;;;;;;;;5083499;28;20477;-75
2022/07/21 06:52:37;;;;;;;10.15;4.03;;;;;;;;;;5077893;28;20081;-72
2022/07/21 06:55:04;;;;;;;10.05;4.32;;;;;;;;;;5088633;28;20401;-72
2022/07/21 06:57:30;;;;;;;10.50;4.78;;;;;;;;;;5080341;28;20662;-71
2022/07/21 06:59:57;;;;;;;27.92;5.55;;;;;;;;;;5083572;28;20020;-72
2022/07/21 07:02:23;;;;;;;13.07;4.18;;;;;;;;;;5092147;28;20066;-74
2022/07/21 07:04:49;;;;;;;13.27;4.68;;;;;;;;;;5082773;28;20056;-72
2022/07/21 07:07:15;;;;;;;28.80;5.32;;;;;;;;;;5080981;28;20029;-74
2022/07/21 07:09:41;;;;;;;11.40;4.50;;;;;;;;;;5089723;28;20020;-76
2022/07/21 07:12:08;;;;;;;29.27;6.38;;;;;;;;;;5090512;28;20055;-73
2022/07/21 07:14:35;;;;;;;20.10;7.70;;;;;;;;;;5093835;28;20073;-73
2022/07/21 07:17:02;;;;;;;11.30;4.82;;;;;;;;;;5080675;28;20032;-74
2022/07/21 07:19:28;;;;;;;12.63;4.53;;;;;;;;;;5080015;28;20118;-73
2022/07/21 07:21:55;;;;;;;12.00;4.75;;;;;;;;;;5088310;28;20020;-74
2022/07/21 07:24:21;;;;;;;22.27;4.80;;;;;;;;;;5083625;28;20035;-73
2022/07/21 07:26:47;;;;;;;13.23;4.30;;;;;;;;;;5090427;28;20150;-71
2022/07/21 07:29:24;;;;;;;12.70;4.72;;;;;;;;;;5082280;28;20502;-72
2022/07/21 07:31:50;;;;;;;16.33;4.72;;;;;;;;;;5090413;28;20089;-75
2022/07/21 07:34:16;;;;;;;7.15;4.15;;;;;;;;;;5090298;28;20043;-75
2022/07/21 07:36:42;;;;;;;10.82;4.63;;;;;;;;;;5087644;28;20035;-72
2022/07/21 07:39:08;;;;;;;8.18;4.35;;;;;;;;;;5085272;28;20024;-72
2022/07/21 07:41:34;;;;;;;7.10;3.92;;;;;;;;;;5089263;28;20028;-72
2022/07/21 07:44:00;;;;;;;9.43;4.32;;;;;;;;;;5085622;28;20028;-74
2022/07/21 07:46:27;;;;;;;11.48;3.97;;;;;;;;;;5091852;28;20389;-75
2022/07/21 07:48:53;;;;;;;12.20;4.63;;;;;;;;;;5087723;28;20024;-74
2022/07/21 07:51:19;;;;;;;10.15;3.90;;;;;;;;;;5090157;28;20021;-76
2022/07/21 07:53:45;;;;;;;7.03;3.70;;;;;;;;;;5083725;28;20040;-73
2022/07/21 07:56:11;;;;;;;7.72;3.70;;;;;;;;;;5076596;28;20053;-73
2022/07/21 07:58:37;;;;;;;5.28;3.13;;;;;;;;;;5091357;28;20114;-72
2022/07/21 08:01:05;;;;;;;9.93;3.33;;;;;;;;;;5092310;28;20024;-71
2022/07/21 08:03:31;;;;;;;9.38;3.47;;;;;;;;;;5088959;28;20391;-72
2022/07/21 08:06:02;;;;;;;7.70;3.55;;;;;;;;;;5090196;28;20046;-72
2022/07/21 08:08:28;;;;;;;8.55;3.40;;;;;;;;;;5085399;28;20032;-75
2022/07/21 08:10:54;;;;;;;11.63;3.72;;;;;;;;;;5089617;28;20066;-71
2022/07/21 08:13:21;;;;;;;11.20;3.90;;;;;;;;;;5085559;28;20509;-73
2022/07/21 08:15:47;;;;;;;13.98;3.95;;;;;;;;;;5088887;28;20024;-74
2022/07/21 08:18:14;;;;;;;9.60;3.70;;;;;;;;;;5084850;28;20036;-72
2022/07/21 08:20:41;;;;;;;9.13;3.50;;;;;;;;;;5088888;28;20393;-72
2022/07/21 08:23:07;;;;;;;11.45;3.67;;;;;;;;;;5088212;28;20106;-70
2022/07/21 08:25:34;;;;;;;14.13;4.35;;;;;;;;;;5089828;28;20028;-70
2022/07/21 08:28:00;;;;;;;9.32;3.80;;;;;;;;;;5088554;28;20020;-72
2022/07/21 08:30:26;;;;;;;10.68;3.60;;;;;;;;;;5086170;28;20052;-71
2022/07/21 08:32:52;;;;;;;9.55;3.65;;;;;;;;;;5085791;28;20024;-71
2022/07/21 08:35:18;;;;;;;13.43;4.13;;;;;;;;;;5088315;28;20108;-74
2022/07/21 08:37:53;;;;;;;9.50;3.88;;;;;;;;;;5087162;28;20048;-72
2022/07/21 08:40:21;;;;;;;10.93;4.03;;;;;;;;;;5083684;28;20029;-73
2022/07/21 08:42:47;;;;;;;11.25;4.13;;;;;;;;;;5089099;28;20447;-76
2022/07/21 08:45:13;;;;;;;8.23;3.58;;;;;;;;;;5090332;28;20020;-72
2022/07/21 08:47:40;;;;;;;8.82;3.30;;;;;;;;;;5091152;28;20397;-70
2022/07/21 08:50:10;;;;;;;10.50;3.75;;;;;;;;;;5091677;28;20020;-70
2022/07/21 08:52:36;;;;;;;8.00;3.38;;;;;;;;;;5092001;28;20115;-72
2022/07/21 08:55:03;;;;;;;8.48;3.35;;;;;;;;;;5091128;28;20024;-72
2022/07/21 08:57:29;;;;;;;11.25;3.35;;;;;;;;;;5082625;28;20039;-71
2022/07/21 08:59:55;;;;;;;12.32;3.60;;;;;;;;;;5085050;28;20245;-67
2022/07/21 09:02:27;;;;;;;10.70;3.78;;;;;;;;;;5086146;28;20032;-72
2022/07/21 09:04:53;;;;;;;11.38;3.70;;;;;;;;;;5090433;28;20462;-76
2022/07/21 09:07:19;;;;;;;13.38;3.92;;;;;;;;;;5089965;28;20492;-69
2022/07/21 09:09:55;;;;;;;14.75;3.80;;;;;;;;;;5092011;28;20114;-70
2022/07/21 09:12:21;;;;;;;13.05;3.83;;;;;;;;;;5101019;28;20024;-70
2022/07/21 09:14:48;;;;;;;14.50;4.38;;;;;;;;;;5089402;28;20105;-69
2022/07/21 09:17:16;;;;;;;8.82;3.30;;;;;;;;;;5091062;28;20440;-69
2022/07/21 09:19:45;;;;;;;10.73;4.07;;;;;;;;;;5083232;28;20381;-80
2022/07/21 09:22:18;;;;;;;11.95;3.72;;;;;;;;;;5087307;28;20103;-72
2022/07/21 09:24:44;;;;;;;;;;;;;;;;;;5091172;28;20028;-70
2022/07/21 09:27:14;;;;;;;13.18;3.65;;;;;;;;;;5091433;28;19934;-78
2022/07/21 09:29:42;;;;;;;8.43;3.42;;;;;;;;;;5084826;28;20027;-79
2022/07/21 09:32:14;;;;;;;9.27;3.47;;;;;;;;;;5093332;28;20099;-74
2022/07/21 09:34:41;;;;;;;10.02;4.18;;;;;;;;;;5094314;28;20131;-72
2022/07/21 09:37:10;;;;;;;10.65;3.42;;;;;;;;;;5094844;28;20028;-70
2022/07/21 09:39:45;;;;;;;8.00;3.00;;;;;;;;;;5089664;28;20032;-67
2022/07/21 09:42:14;;;;;;;10.57;3.17;;;;;;;;;;5095428;28;20059;-69
2022/07/21 09:44:45;;;;;;;12.07;3.50;;;;;;;;;;5095208;28;20036;-66
2022/07/21 09:47:12;;;;;;;13.45;3.63;;;;;;;;;;5093155;28;20513;-68
2022/07/21 09:49:39;;;;;;;7.10;3.20;;;;;;;;;;5095319;28;20031;-69
2022/07/21 09:52:41;;;;;;;8.20;3.28;;;;;;;;;;5092937;28;20020;-70
2022/07/21 09:55:09;;;;;;;5.93;3.00;;;;;;;;;;4988693;28;20073;-68
2022/07/21 09:57:35;;;;;;;11.35;3.40;;;;;;;;;;4991311;28;20121;-70
2022/07/21 10:00:04;;;;;;;11.15;3.17;;;;;;;;;;4992359;28;20042;-69
2022/07/21 10:02:31;;;;;;;12.05;3.55;;;;;;;;;;4993833;28;20456;-70
2022/07/21 10:05:08;;;;;;;11.25;3.55;;;;;;;;;;4993165;28;20034;-66
2022/07/21 10:07:36;;;;;;;10.90;3.22;;;;;;;;;;4993978;28;20552;-68
2022/07/21 10:10:03;;;;;;;7.05;3.15;;;;;;;;;;4991840;28;20045;-67
2022/07/21 10:12:29;;;;;;;5.78;2.88;;;;;;;;;;4991889;28;20038;-68
2022/07/21 10:14:56;;;;;;;7.53;3.00;;;;;;;;;;4993300;28;20516;-66
2022/07/21 10:17:25;;;;;;;6.93;3.13;;;;;;;;;;4991429;28;20057;-69
2022/07/21 10:20:09;;;;;;;6.57;3.20;;;;;;;;;;4974818;28;20074;-67
2022/07/21 10:22:53;;;;;;;16.90;4.20;;;;;;;;;;4990190;28;20049;-68
2022/07/21 10:25:19;;;;;;;9.45;3.00;;;;;;;;;;4990842;28;20125;-67
2022/07/21 10:28:04;;;;;;;6.50;3.10;;;;;;;;;;4990510;28;20403;-69
2022/07/21 10:30:55;;;;;;;7.85;3.28;;;;;;;;;;5089712;28;20397;-70
2022/07/21 10:33:44;;;;;;;7.90;3.60;;;;;;;;;;5010769;28;20109;-72
2022/07/21 10:36:10;;;;;;;11.98;4.15;;;;;;;;;;5010431;28;20065;-70
2022/07/21 10:38:37;;;;;;;5.40;3.22;;;;;;;;;;5012546;28;20484;-69
2022/07/21 10:41:05;;;;;;;9.50;3.70;;;;;;;;;;5010544;28;20026;-72
2022/07/21 10:43:31;;;;;;;6.82;3.10;;;;;;;;;;4994041;28;20038;-70
2022/07/21 10:45:58;;;;;;;8.50;4.05;;;;;;;;;;5010318;28;20029;-72
2022/07/21 10:48:40;;;;;;;5.32;2.70;;;;;;;;;;5012610;28;20030;-72
2022/07/21 10:51:15;;;;;;;7.93;2.70;;;;;;;;;;5011811;28;20089;-70
2022/07/21 10:54:13;;;;;;;7.00;3.17;;;;;;;;;;5011433;28;20029;-71
2022/07/21 10:56:42;;;;;;;11.50;3.08;;;;;;;;;;5012122;28;20045;-71
2022/07/21 10:59:08;;;;;;;8.95;2.90;;;;;;;;;;5010980;28;20385;-70
2022/07/21 11:01:35;;;;;;;11.20;2.83;;;;;;;;;;4994602;28;20088;-72
2022/07/21 11:04:07;;;;;;;7.35;3.05;;;;;;;;;;4993558;28;20030;-77
2022/07/21 11:06:34;;;;;;;5.65;2.63;;;;;;;;;;5009977;28;20030;-73
2022/07/21 11:09:03;;;;;;;15.05;3.20;;;;;;;;;;5010302;28;20026;-71
2022/07/21 11:11:30;;;;;;;6.00;3.17;;;;;;;;;;5087358;28;20036;-79
2022/07/21 11:14:07;;;;;;;5.55;3.00;;;;;;;;;;5087495;28;20059;-71
2022/07/21 11:16:42;;;;;;;11.13;3.10;;;;;;;;;;5092191;28;20362;-78
2022/07/21 11:19:27;;;;;;;7.70;3.10;;;;;;;;;;5092931;28;20028;-77
2022/07/21 11:21:54;;;;;;;6.53;3.13;;;;;;;;;;5088725;28;20115;-77
2022/07/21 11:24:23;;;;;;;7.53;3.33;;;;;;;;;;5092736;28;20479;-83
2022/07/21 11:26:55;;;;;;;10.35;2.83;;;;;;;;;;5093632;28;20097;-87
2022/07/21 11:29:21;;;;;;;11.10;3.38;;;;;;;;;;5092369;28;20078;-80
2022/07/21 11:31:47;;;;;;;7.93;3.30;;;;;;;;;;5072135;28;20024;-79
2022/07/21 11:34:14;;;;;;;6.97;3.42;;;;;;;;;;5091022;28;20024;-68
2022/07/21 11:36:43;;;;;;;5.82;3.45;;;;;;;;;;5085447;28;20032;-68
2022/07/21 11:39:10;;;;;;;5.95;3.20;;;;;;;;;;5089201;28;20431;-70
2022/07/21 11:41:37;;;;;;;6.10;3.38;;;;;;;;;;5082889;28;20032;-70
2022/07/21 11:44:04;;;;;;;4.80;3.47;;;;;;;;;;5087094;28;20028;-73
2022/07/21 11:46:45;;;;;;;9.50;3.17;;;;;;;;;;5091795;28;20065;-77
2022/07/21 11:49:11;;;;;;;4.90;2.80;;;;;;;;;;5089567;28;20485;-70
2022/07/21 11:51:37;;;;;;;8.23;3.72;;;;;;;;;;5093314;28;20064;-77
2022/07/21 11:54:03;;;;;;;6.85;3.13;;;;;;;;;;5090081;28;20473;-77
2022/07/21 11:56:36;;;;;;;7.40;3.38;;;;;;;;;;5091447;28;20474;-81
2022/07/21 11:59:10;;;;;;;15.70;3.83;;;;;;;;;;5102724;28;20051;-76
2022/07/21 12:01:51;;;;;;;8.98;3.50;;;;;;;;;;5081553;28;20070;-80
2022/07/21 12:04:27;;;;;;;7.45;3.13;;;;;;;;;;5089311;28;20032;-84
2022/07/21 12:06:53;;;;;;;7.43;3.35;;;;;;;;;;5084387;28;20049;-81
2022/07/21 12:09:19;;;;;;;11.15;3.60;;;;;;;;;;5083622;28;20127;-85
2022/07/21 12:11:45;;;;;;;5.07;3.20;;;;;;;;;;5088003;28;20496;-70
2022/07/21 12:14:11;;;;;;;10.93;3.53;;;;;;;;;;5085048;28;20040;-71
2022/07/21 12:16:53;;;;;;;9.57;3.58;;;;;;;;;;5083989;28;20096;-70
2022/07/21 12:19:20;;;;;;;9.07;3.50;;;;;;;;;;5079745;28;20037;-70
2022/07/21 12:21:47;;;;;;;6.88;3.20;;;;;;;;;;5077924;28;20031;-71
2022/07/21 12:24:13;;;;;;;13.00;3.50;;;;;;;;;;5091505;28;20028;-68
2022/07/21 12:26:40;;;;;;;10.65;3.63;;;;;;;;;;5087112;28;20126;-70
2022/07/21 12:29:06;;;;;;;5.25;3.22;;;;;;;;;;5089567;28;20032;-67
2022/07/21 12:31:32;;;;;;;17.25;3.83;;;;;;;;;;5080074;28;20497;-68
2022/07/21 12:34:10;;;;;;;7.97;3.60;;;;;;;;;;5082485;28;20032;-67
2022/07/21 12:36:37;;;;;;;7.72;3.50;;;;;;;;;;5091799;28;20115;-68
2022/07/21 12:42:38;;;;;;;11.02;3.60;;;;;;;;;;5013106;28;20506;-68
2022/07/21 12:45:17;;;;;;;24.13;4.25;;;;;;;;;;5011591;28;20070;-67
2022/07/21 12:47:43;;;;;;;12.40;4.30;;;;;;;;;;5003773;28;20408;-67
2022/07/21 12:50:13;;;;;;;6.43;3.20;;;;;;;;;;5009496;28;20033;-68
2022/07/21 12:52:39;;;;;;;10.93;4.18;;;;;;;;;;5007284;28;20042;-68
2022/07/21 12:55:06;;;;;;;11.68;3.83;;;;;;;;;;5010378;28;20030;-67
2022/07/21 12:57:33;;;;;;;11.48;4.20;;;;;;;;;;5002149;28;20101;-69
2022/07/21 13:00:00;;;;;;;12.40;4.05;;;;;;;;;;5007277;28;20018;-68
2022/07/21 13:02:28;;;;;;;8.63;3.83;;;;;;;;;;5003263;28;20034;-69
2022/07/21 13:04:55;;;;;;;9.32;3.72;;;;;;;;;;5003794;28;20122;-67
2022/07/21 13:07:21;;;;;;;7.53;3.22;;;;;;;;;;4997163;28;20459;-68
2022/07/21 13:09:49;;;;;;;5.75;3.40;;;;;;;;;;5012085;28;20037;-69
2022/07/21 13:12:16;;;;;;;9.55;3.67;;;;;;;;;;4998561;28;20569;-69
2022/07/21 13:14:42;;;;;;;10.30;4.30;;;;;;;;;;4994761;28;20093;-69
2022/07/21 13:17:08;;;;;;;10.52;4.32;;;;;;;;;;5040018;28;20435;-68
2022/07/21 13:19:36;;;;;;;7.57;3.58;;;;;;;;;;5091681;28;20159;-70
2022/07/21 13:22:05;;;;;;;11.30;3.83;;;;;;;;;;5086110;28;20473;-68
2022/07/21 13:24:31;;;;;;;10.90;3.70;;;;;;;;;;5084458;28;20035;-68
2022/07/21 13:26:57;;;;;;;19.95;4.88;;;;;;;;;;5091646;28;20032;-70
2022/07/21 13:29:23;;;;;;;9.10;3.90;;;;;;;;;;5090761;28;20028;-70
2022/07/21 13:31:50;;;;;;;11.07;3.80;;;;;;;;;;5084585;28;20020;-70
2022/07/21 13:34:16;;;;;;;8.40;3.70;;;;;;;;;;5092766;28;20637;-68
2022/07/21 13:36:42;;;;;;;10.43;4.05;;;;;;;;;;5088629;28;20042;-74
2022/07/21 13:39:08;;;;;;;10.00;3.67;;;;;;;;;;5089651;28;20490;-69
2022/07/21 13:41:37;;;;;;;11.38;3.90;;;;;;;;;;5095285;28;20028;-70
2022/07/21 13:44:03;;;;;;;6.03;3.60;;;;;;;;;;5090730;28;20087;-73
2022/07/21 13:46:29;;;;;;;16.65;4.55;;;;;;;;;;5091518;28;20016;-80
2022/07/21 13:48:58;;;;;;;6.32;3.65;;;;;;;;;;5090585;28;20099;-74
2022/07/21 13:51:24;;;;;;;11.25;3.97;;;;;;;;;;5098659;28;20540;-74
2022/07/21 13:53:51;;;;;;;7.93;3.88;;;;;;;;;;5088804;28;20024;-75
2022/07/21 13:56:17;;;;;;;11.00;4.00;;;;;;;;;;5091891;28;20032;-75
2022/07/21 13:58:43;;;;;;;13.15;4.28;;;;;;;;;;5094634;28;20040;-71
2022/07/21 14:01:10;;;;;;;9.57;3.97;;;;;;;;;;5094792;28;20020;-70
2022/07/21 14:03:37;;;;;;;12.95;4.50;;;;;;;;;;5091962;28;21068;-73
2022/07/21 14:06:03;;;;;;;9.43;3.65;;;;;;;;;;5088321;28;20052;-75
2022/07/21 14:08:29;;;;;;;14.68;3.65;;;;;;;;;;5082950;28;20078;-80
2022/07/21 14:10:56;;;;;;;9.07;3.70;;;;;;;;;;5076080;28;20051;-74
2022/07/21 14:13:22;;;;;;;9.32;3.30;;;;;;;;;;5079143;28;20049;-75
2022/07/21 14:15:48;;;;;;;10.13;3.75;;;;;;;;;;5088640;28;20034;-73
2022/07/21 14:18:14;;;;;;;18.60;4.20;;;;;;;;;;5093915;28;20055;-75
2022/07/21 14:20:40;;;;;;;9.00;3.80;;;;;;;;;;5092019;28;20551;-75
2022/07/21 14:23:06;;;;;;;10.40;4.15;;;;;;;;;;5094273;28;20032;-75
2022/07/21 14:25:32;;;;;;;10.15;3.80;;;;;;;;;;5092943;28;20028;-76
2022/07/21 14:27:58;;;;;;;7.47;3.83;;;;;;;;;;5085785;28;20041;-77
2022/07/21 14:30:25;;;;;;;8.50;3.60;;;;;;;;;;5089585;28;20032;-73
2022/07/21 14:32:52;;;;;;;4.78;3.30;;;;;;;;;;5094520;28;20385;-73
2022/07/21 14:35:18;;;;;;;14.25;4.18;;;;;;;;;;5086936;28;20086;-73
2022/07/21 14:37:45;;;;;;;7.80;3.88;;;;;;;;;;5091529;28;20028;-71
2022/07/21 14:40:12;;;;;;;8.82;3.72;;;;;;;;;;5089034;28;20063;-70
2022/07/21 14:42:38;;;;;;;11.88;3.70;;;;;;;;;;5094111;28;20028;-72
2022/07/21 14:45:05;;;;;;;90.50;8.52;;;;;;;;;;5090481;28;20027;-75